Time;durP1;ratioP1;P1;durP2;ratioP2;P2;SDS_P1;SDS_P2;PMS_P1;PMS_P2;Temp;Humidity;BMP_temperature;BMP_pressure;BME280_temperature;BME280_humidity;BME280_pressure;Samples;Min_cycle;Max_cycle;Signal;HPM_P1;HPM_P2
2021/07/22 00:01:17;;;;;;;;;;;;;;;;;;3571942;40;19928;-66
2021/07/22 00:03:43;;;;;;;;;;;;;;;;;;3569571;40;20190;-66
2021/07/22 00:06:09;;;;;;;;;;;;;;;;;;3571516;40;19960;-66
2021/07/22 00:08:35;;;;;;;;;;;;;;;;;;3569795;40;19977;-66
2021/07/22 00:11:00;;;;;;;;;;;;;;;;;;3570858;40;19932;-66
2021/07/22 00:13:26;;;;;;;;;;;;;;;;;;3569664;40;19932;-66
2021/07/22 00:15:52;;;;;;;;;;;;;;;;;;3570742;40;19925;-66
2021/07/22 00:18:18;;;;;;;;;;;;;;;;;;3566145;40;19937;-66
2021/07/22 00:20:44;;;;;;;;;;;;;;;;;;3581187;40;19925;-66
2021/07/22 00:23:11;;;;;;;;;;;;;;;;;;3570021;40;20007;-66
2021/07/22 00:25:37;;;;;;;;;;;;;;;;;;3574484;40;19925;-66
2021/07/22 00:28:02;;;;;;;;;;;;;;;;;;3570358;40;19965;-66
2021/07/22 00:30:28;;;;;;;;;;;;;;;;;;3570658;40;19939;-66
2021/07/22 00:32:57;;;;;;;;;;;;;;;;;;3569593;40;19932;-66
2021/07/22 00:35:23;;;;;;;;;;;;;;;;;;3574716;40;20010;-66
2021/07/22 00:37:49;;;;;;;;;;;;;;;;;;3570677;40;19933;-66
2021/07/22 00:40:15;;;;;;;;;;;;;;;;;;3570645;40;19925;-66
2021/07/22 00:42:41;;;;;;;;;;;;;;;;;;3569224;40;19964;-66
2021/07/22 00:45:07;;;;;;;;;;;;;;;;;;3569767;40;20329;-66
2021/07/22 00:47:32;;;;;;;;;;;;;;;;;;3561806;40;19932;-66
2021/07/22 00:49:58;;;;;;;;;;;;;;;;;;3575769;40;19944;-66
2021/07/22 00:52:24;;;;;;;;;;;;;;;;;;3571872;40;19925;-66
2021/07/22 00:54:50;;;;;;;;;;;;;;;;;;3576691;40;19933;-66
2021/07/22 00:57:16;;;;;;;;;;;;;;;;;;3569121;40;20249;-66
2021/07/22 00:59:42;;;;;;;;;;;;;;;;;;3572400;40;19961;-66
2021/07/22 01:02:08;;;;;;;;;;;;;;;;;;3569476;40;19925;-66
2021/07/22 01:07:03;;;;;;;;;;;;;;;;;;3575546;40;19937;-70
2021/07/22 01:09:29;;;;;;;;;;;;;;;;;;3576075;40;19951;-70
2021/07/22 01:11:55;;;;;;;;;;;;;;;;;;3574450;40;19928;-70
2021/07/22 01:14:21;;;;;;;;;;;;;;;;;;3585928;40;19936;-70
2021/07/22 01:16:47;;;;;;;;;;;;;;;;;;3582911;40;19972;-70
2021/07/22 01:19:12;;;;;;;;;;;;;;;;;;3585728;40;19933;-70
2021/07/22 01:21:38;;;;;;;;;;;;;;;;;;3586919;40;19924;-70
2021/07/22 01:24:04;;;;;;;;;;;;;;;;;;3589076;40;19924;-70
2021/07/22 01:26:30;;;;;;;;;;;;;;;;;;3583006;40;19975;-70
2021/07/22 01:28:56;;;;;;;;;;;;;;;;;;3579979;40;19925;-70
2021/07/22 01:31:22;;;;;;;;;;;;;;;;;;3579366;40;19965;-69
2021/07/22 01:33:48;;;;;;;;;;;;;;;;;;3586840;40;19925;-70
2021/07/22 01:36:17;;;;;;;;;;;;;;;;;;3584311;40;19933;-69
2021/07/22 01:38:43;;;;;;;;;;;;;;;;;;3581725;40;19937;-69
2021/07/22 01:41:09;;;;;;;;;;;;;;;;;;3582209;40;20322;-69
2021/07/22 01:43:35;;;;;;;;;;;;;;;;;;3582516;40;19924;-69
2021/07/22 01:46:01;;;;;;;;;;;;;;;;;;3574075;40;19924;-70
2021/07/22 01:48:27;;;;;;;;;;;;;;;;;;3582742;40;19925;-70
2021/07/22 01:50:53;;;;;;;;;;;;;;;;;;3579247;40;19936;-70
2021/07/22 01:53:19;;;;;;;;;;;;;;;;;;3581006;40;19925;-70
2021/07/22 01:55:45;;;;;;;;;;;;;;;;;;3580650;40;19925;-70
2021/07/22 01:58:12;;;;;;;;;;;23.10;99.90;;;;;;3583870;40;19924;-70
2021/07/22 02:00:38;;;;;;;;;;;23.20;99.90;;;;;;3577428;40;19935;-70
2021/07/22 02:03:03;;;;;;;;;;;23.20;99.90;;;;;;3580203;40;19929;-70
2021/07/22 02:05:30;;;;;;;;;;;23.10;99.90;;;;;;3573028;40;19925;-70
2021/07/22 02:07:55;;;;;;;;;;;23.10;99.90;;;;;;3561785;40;19956;-69
2021/07/22 02:10:21;;;;;;;;;;;23.10;99.90;;;;;;3571527;40;20298;-70
2021/07/22 02:12:46;;;;;;;;;;;23.10;99.90;;;;;;3570513;40;19936;-70
2021/07/22 02:15:13;;;;;;;;;;;23.10;99.90;;;;;;3570406;40;20281;-70
2021/07/22 02:17:39;;;;;;;;;;;23.10;99.90;;;;;;3565601;40;19953;-71
2021/07/22 02:20:05;;;;;;;;;;;23.10;99.90;;;;;;3570620;40;19936;-70
2021/07/22 02:22:31;;;;;;;;;;;23.10;99.90;;;;;;3570805;40;19964;-69
2021/07/22 02:24:57;;;;;;;;;;;;;;;;;;3574431;40;20288;-69
2021/07/22 02:27:23;;;;;;;;;;;;;;;;;;3563807;40;20011;-69
2021/07/22 02:29:49;;;;;;;;;;;;;;;;;;3570139;40;20167;-69
2021/07/22 02:32:15;;;;;;;;;;;;;;;;;;3568810;40;19925;-69
2021/07/22 02:34:41;;;;;;;;;;;;;;;;;;3569900;40;20278;-69
2021/07/22 02:37:06;;;;;;;;;;;;;;;;;;3568432;40;20010;-68
2021/07/22 02:39:35;;;;;;;;;;;;;;;;;;3573447;40;20018;-69
2021/07/22 02:42:01;;;;;;;;;;;;;;;;;;3565129;40;19933;-69
2021/07/22 02:44:27;;;;;;;;;;;;;;;;;;3567374;40;20168;-70
2021/07/22 02:46:53;;;;;;;;;;;;;;;;;;3576971;40;19932;-69
2021/07/22 02:49:19;;;;;;;;;;;;;;;;;;3578297;40;20189;-69
2021/07/22 02:51:45;;;;;;;;;;;;;;;;;;3577091;40;19936;-70
2021/07/22 02:54:11;;;;;;;;;;;;;;;;;;3572520;40;19929;-69
2021/07/22 02:56:37;;;;;;;;;;;;;;;;;;3573094;40;20014;-70
2021/07/22 02:59:03;;;;;;;;;;;;;;;;;;3580137;40;19937;-70
2021/07/22 03:01:29;;;;;;;;;;;;;;;;;;3578548;40;20010;-69
2021/07/22 03:03:56;;;;;;;;;;;;;;;;;;3571219;40;19928;-69
2021/07/22 03:06:22;;;;;;;;;;;;;;;;;;3578789;40;19924;-69
2021/07/22 03:08:48;;;;;;;;;;;;;;;;;;3582288;40;19925;-69
2021/07/22 03:11:14;;;;;;;;;;;;;;;;;;3571282;40;19933;-70
2021/07/22 03:13:40;;;;;;;;;;;;;;;;;;3574750;40;19925;-70
2021/07/22 03:16:07;;;;;;;;;;;23.20;99.90;;;;;;3579032;40;20025;-69
2021/07/22 03:18:33;;;;;;;;;;;22.70;99.90;;;;;;3585609;40;19968;-69
2021/07/22 03:21:01;;;;;;;;;;;22.70;99.90;;;;;;3580303;40;19930;-69
2021/07/22 03:23:27;;;;;;;;;;;22.70;99.90;;;;;;3580456;40;20360;-69
2021/07/22 03:25:52;;;;;;;;;;;22.70;99.90;;;;;;3582568;40;19937;-69
2021/07/22 03:28:20;;;;;;;;;;;22.70;99.90;;;;;;3570516;40;19965;-69
2021/07/22 03:30:45;;;;;;;;;;;22.70;99.90;;;;;;3570529;40;19929;-69
2021/07/22 03:33:13;;;;;;;;;;;22.70;99.90;;;;;;3580296;40;20325;-69
2021/07/22 03:35:41;;;;;;;;;;;22.70;99.90;;;;;;3571708;40;19935;-69
2021/07/22 03:38:07;;;;;;;;;;;22.70;99.90;;;;;;3583241;40;19928;-69
2021/07/22 03:40:33;;;;;;;;;;;22.80;99.90;;;;;;3579192;40;19939;-69
2021/07/22 03:42:59;;;;;;;;;;;22.80;99.90;;;;;;3578182;40;19935;-69
2021/07/22 03:45:24;;;;;;;;;;;22.90;99.90;;;;;;3588327;40;19943;-69
2021/07/22 03:47:50;;;;;;;;;;;22.90;99.90;;;;;;3576789;40;20272;-69
2021/07/22 03:50:17;;;;;;;;;;;22.80;99.90;;;;;;3570536;40;19935;-69
2021/07/22 03:52:43;;;;;;;;;;;22.70;99.90;;;;;;3580808;40;19935;-69
2021/07/22 03:55:09;;;;;;;;;;;22.70;99.90;;;;;;3581586;40;19933;-69
2021/07/22 03:57:35;;;;;;;;;;;22.70;99.90;;;;;;3570812;40;20014;-69
2021/07/22 04:00:00;;;;;;;;;;;22.60;99.90;;;;;;3586707;40;19959;-69
2021/07/22 04:02:26;;;;;;;;;;;22.60;99.90;;;;;;3582289;40;19935;-69
2021/07/22 04:04:52;;;;;;;;;;;22.60;99.90;;;;;;3572890;40;19929;-71
2021/07/22 04:07:19;;;;;;;;;;;22.60;99.90;;;;;;3572537;40;19932;-69
2021/07/22 04:09:47;;;;;;;;;;;22.70;99.90;;;;;;3578115;40;21372;-70
2021/07/22 04:12:15;;;;;;;;;;;22.70;99.90;;;;;;3575384;40;20373;-69
2021/07/22 04:14:40;;;;;;;;;;;22.70;99.90;;;;;;3582484;40;19933;-69
2021/07/22 04:17:06;;;;;;;;;;;22.80;99.90;;;;;;3575806;40;20043;-69
2021/07/22 04:19:32;;;;;;;;;;;22.80;99.90;;;;;;3583559;40;20018;-69
2021/07/22 04:21:58;;;;;;;;;;;22.80;99.90;;;;;;3587568;40;19958;-69
2021/07/22 04:24:25;;;;;;;;;;;22.90;99.90;;;;;;3570455;40;20274;-69
2021/07/22 04:26:50;;;;;;;;;;;22.90;99.90;;;;;;3576389;40;19945;-69
2021/07/22 04:29:16;;;;;;;;;;;23.00;99.90;;;;;;3588550;40;19944;-69
2021/07/22 04:31:42;;;;;;;;;;;23.00;99.90;;;;;;3581850;40;19937;-70
2021/07/22 04:34:07;;;;;;;;;;;23.00;99.90;;;;;;3578174;40;19933;-69
2021/07/22 04:36:33;;;;;;;;;;;23.10;99.90;;;;;;3580944;40;20018;-69
2021/07/22 04:38:59;;;;;;;;;;;23.10;99.90;;;;;;3564755;40;19933;-69
2021/07/22 04:41:26;;;;;;;;;;;23.10;99.90;;;;;;3575633;40;19954;-70
2021/07/22 04:43:51;;;;;;;;;;;23.10;99.90;;;;;;3576356;40;19941;-70
2021/07/22 04:46:17;;;;;;;;;;;23.10;99.90;;;;;;3586075;40;19936;-69
2021/07/22 04:48:43;;;;;;;;;;;23.20;99.90;;;;;;3586774;40;19940;-70
2021/07/22 04:51:08;;;;;;;;;;;23.10;99.90;;;;;;3573819;40;20019;-70
2021/07/22 04:53:34;;;;;;;;;;;23.20;99.90;;;;;;3582497;40;20018;-69
2021/07/22 04:56:00;;;;;;;;;;;23.10;99.90;;;;;;3577644;40;19940;-69
2021/07/22 04:58:27;;;;;;;;;;;23.20;99.90;;;;;;3580891;40;19933;-69
2021/07/22 05:00:55;;;;;;;;;;;23.20;99.90;;;;;;3583074;40;19936;-69
2021/07/22 05:03:21;;;;;;;;;;;23.20;99.90;;;;;;3574505;40;20014;-69
2021/07/22 05:05:47;;;;;;;;;;;23.20;99.90;;;;;;3573593;40;19945;-69
2021/07/22 05:08:12;;;;;;;;;;;23.10;99.90;;;;;;3572026;40;19936;-69
2021/07/22 05:10:38;;;;;;;;;;;23.20;99.90;;;;;;3570189;40;19933;-69
2021/07/22 05:13:04;;;;;;;;;;;23.10;99.90;;;;;;3570871;40;19940;-69
2021/07/22 05:15:31;;;;;;;;;;;23.20;99.90;;;;;;3572576;40;19941;-69
2021/07/22 05:17:56;;;;;;;;;;;23.20;99.90;;;;;;3573316;40;19945;-68
2021/07/22 05:20:22;;;;;;;;;;;23.20;99.90;;;;;;3569377;40;19940;-68
2021/07/22 05:22:48;;;;;;;;;;;23.20;99.90;;;;;;3570724;40;19941;-72
2021/07/22 05:25:14;;;;;;;;;;;23.30;99.90;;;;;;3569073;40;19945;-69
2021/07/22 05:27:39;;;;;;;;;;;23.20;99.90;;;;;;3572649;40;19934;-69
2021/07/22 05:30:05;;;;;;;;;;;23.20;99.90;;;;;;3571630;40;19941;-69
2021/07/22 05:32:33;;;;;;;;;;;23.20;99.90;;;;;;3565070;40;19940;-69
2021/07/22 05:34:59;;;;;;;;;;;23.20;99.90;;;;;;3569690;40;20027;-70
2021/07/22 05:37:25;;;;;;;;;;;23.20;99.90;;;;;;3563677;40;20245;-70
2021/07/22 05:39:51;;;;;;;;;;;23.20;99.90;;;;;;3570901;40;20230;-70
2021/07/22 05:42:16;;;;;;;;;;;23.20;99.90;;;;;;3574399;40;19933;-71
2021/07/22 05:44:42;;;;;;;;;;;23.20;99.90;;;;;;3571105;40;19969;-70
2021/07/22 05:47:08;;;;;;;;;;;23.10;99.90;;;;;;3564429;40;20066;-70
2021/07/22 05:49:35;;;;;;;;;;;23.20;99.90;;;;;;3570377;40;19945;-70
2021/07/22 05:52:01;;;;;;;;;;;23.20;99.90;;;;;;3574076;40;19945;-70
2021/07/22 05:54:27;;;;;;;;;;;23.20;99.90;;;;;;3568099;40;20019;-70
2021/07/22 05:56:52;;;;;;;;;;;23.20;99.90;;;;;;3560780;40;19940;-70
2021/07/22 05:59:18;;;;;;;;;;;;;;;;;;3570471;40;19933;-70
2021/07/22 06:01:44;;;;;;;;;;;;;;;;;;3570712;40;19939;-70
2021/07/22 06:04:10;;;;;;;;;;;;;;;;;;3571860;40;19925;-70
2021/07/22 06:06:36;;;;;;;;;;;;;;;;;;3562170;40;19941;-70
2021/07/22 06:09:02;;;;;;;;;;;;;;;;;;3575813;40;19936;-70
2021/07/22 06:11:28;;;;;;;;;;;;;;;;;;3574013;40;19929;-70
2021/07/22 06:13:54;;;;;;;;;;;;;;;;;;3575444;40;19928;-70
2021/07/22 06:16:20;;;;;;;;;;;;;;;;;;3567390;40;19929;-70
2021/07/22 06:18:46;;;;;;;;;;;;;;;;;;3577766;40;20013;-70
2021/07/22 06:21:12;;;;;;;;;;;;;;;;;;3580351;40;19941;-70
2021/07/22 06:23:38;;;;;;;;;;;;;;;;;;3578431;40;19929;-70
2021/07/22 06:26:05;;;;;;;;;;;;;;;;;;3579026;40;20253;-70
2021/07/22 06:28:31;;;;;;;;;;;;;;;;;;3568077;40;19958;-70
2021/07/22 06:30:57;;;;;;;;;;;;;;;;;;3571396;40;19934;-70
2021/07/22 06:33:23;;;;;;;;;;;;;;;;;;3573181;40;19935;-70
2021/07/22 06:35:48;;;;;;;;;;;;;;;;;;3572244;40;19929;-70
2021/07/22 06:38:14;;;;;;;;;;;;;;;;;;3577520;40;20267;-70
2021/07/22 06:40:40;;;;;;;;;;;;;;;;;;3559602;40;19929;-69
2021/07/22 06:43:06;;;;;;;;;;;;;;;;;;3569243;40;19933;-70
2021/07/22 06:45:32;;;;;;;;;;;;;;;;;;3574724;40;19932;-70
2021/07/22 06:47:58;;;;;;;;;;;;;;;;;;3577800;40;20067;-69
2021/07/22 06:50:24;;;;;;;;;;;;;;;;;;3571187;40;20278;-69
2021/07/22 06:52:50;;;;;;;;;;;;;;;;;;3576983;40;19929;-69
2021/07/22 06:55:16;;;;;;;;;;;;;;;;;;3575499;40;19929;-69
2021/07/22 06:57:42;;;;;;;;;;;;;;;;;;3572536;40;19928;-69
2021/07/22 07:00:08;;;;;;;;;;;;;;;;;;3576631;40;20014;-70
2021/07/22 07:02:34;;;;;;;;;;;;;;;;;;3572134;40;19945;-70
2021/07/22 07:05:00;;;;;;;;;;;;;;;;;;3568499;40;19932;-69
2021/07/22 07:07:25;;;;;;;;;;;;;;;;;;3581391;40;19929;-70
2021/07/22 07:09:53;;;;;;;;;;;;;;;;;;3580248;40;19968;-69
2021/07/22 07:12:18;;;;;;;;;;;;;;;;;;3579663;40;19929;-70
2021/07/22 07:14:44;;;;;;;;;;;;;;;;;;3580426;40;19933;-70
2021/07/22 07:17:10;;;;;;;;;;;;;;;;;;3580133;40;19935;-70
2021/07/22 07:19:36;;;;;;;;;;;;;;;;;;3578897;40;19929;-70
2021/07/22 07:22:02;;;;;;;;;;;;;;;;;;3582573;40;20025;-70
2021/07/22 07:24:28;;;;;;;;;;;;;;;;;;3580726;40;19937;-70
2021/07/22 07:26:54;;;;;;;;;;;;;;;;;;3580001;40;19991;-69
2021/07/22 07:29:20;;;;;;;;;;;;;;;;;;3582038;40;19933;-69
2021/07/22 07:31:46;;;;;;;;;;;;;;;;;;3577992;40;19959;-70
2021/07/22 07:34:12;;;;;;;;;;;;;;;;;;3576944;40;19929;-70
2021/07/22 07:36:43;;;;;;;;;;;;;;;;;;3579984;40;19937;-70
2021/07/22 07:39:09;;;;;;;;;;;;;;;;;;3580127;40;19929;-70
2021/07/22 07:41:35;;;;;;;;;;;;;;;;;;3581083;40;19936;-70
2021/07/22 07:44:01;;;;;;;;;;;;;;;;;;3581062;40;20022;-69
2021/07/22 07:46:27;;;;;;;;;;;;;;;;;;3582187;40;20240;-70
2021/07/22 07:48:53;;;;;;;;;;;;;;;;;;3582034;40;19935;-70
2021/07/22 07:51:19;;;;;;;;;;;;;;;;;;3578903;40;19929;-69
2021/07/22 07:53:45;;;;;;;;;;;;;;;;;;3579856;40;20198;-70
2021/07/22 07:56:10;;;;;;;;;;;;;;;;;;3579981;40;19961;-70
2021/07/22 07:58:36;;;;;;;;;;;;;;;;;;3579860;40;19928;-69
2021/07/22 08:01:02;;;;;;;;;;;;;;;;;;3580488;40;20010;-69
2021/07/22 08:03:28;;;;;;;;;;;;;;;;;;3579717;40;20298;-70
2021/07/22 08:05:54;;;;;;;;;;;;;;;;;;3586280;40;19935;-70
2021/07/22 08:08:20;;;;;;;;;;;;;;;;;;3569933;40;19929;-69
2021/07/22 08:10:46;;;;;;;;;;;;;;;;;;3578101;40;20010;-69
2021/07/22 08:13:12;;;;;;;;;;;;;;;;;;3580322;40;19929;-69
2021/07/22 08:15:38;;;;;;;;;;;;;;;;;;3578870;40;20395;-69
2021/07/22 08:18:04;;;;;;;;;;;;;;;;;;3579564;40;19929;-70
2021/07/22 08:20:30;;;;;;;;;;;;;;;;;;3579718;40;19936;-70
2021/07/22 08:22:56;;;;;;;;;;;;;;;;;;3579157;40;19980;-69
2021/07/22 08:25:23;;;;;;;;;;;;;;;;;;3587352;40;19977;-69
2021/07/22 08:27:49;;;;;;;;;;;;;;;;;;3578434;40;20186;-70
2021/07/22 08:30:15;;;;;;;;;;;;;;;;;;3579735;40;19976;-69
2021/07/22 08:32:41;;;;;;;;;;;;;;;;;;3579725;40;19936;-70
2021/07/22 08:35:07;;;;;;;;;;;;;;;;;;3579642;40;19935;-70
2021/07/22 08:37:33;;;;;;;;;;;;;;;;;;3580765;40;19928;-69
2021/07/22 08:40:04;;;;;;;;;;;;;;;;;;3579761;40;19936;-69
2021/07/22 08:42:30;;;;;;;;;;;;;;;;;;3570164;40;19936;-69
2021/07/22 08:44:56;;;;;;;;;;;;;;;;;;3570124;40;19933;-70
2021/07/22 08:47:22;;;;;;;;;;;;;;;;;;3579531;40;19944;-69
2021/07/22 08:49:48;;;;;;;;;;;;;;;;;;3579520;40;19936;-69
2021/07/22 08:52:14;;;;;;;;;;;;;;;;;;3579505;40;19929;-70
2021/07/22 08:54:40;;;;;;;;;;;;;;;;;;3581026;40;19932;-69
2021/07/22 08:57:06;;;;;;;;;;;;;;;;;;3579461;40;19929;-69
2021/07/22 08:59:32;;;;;;;;;;;;;;;;;;3579565;40;19929;-69
2021/07/22 09:01:58;;;;;;;;;;;;;;;;;;3579564;40;20018;-70
2021/07/22 09:04:24;;;;;;;;;;;;;;;;;;3579473;40;19966;-70
2021/07/22 09:06:50;;;;;;;;;;;;;;;;;;3569986;40;19930;-69
2021/07/22 09:09:16;;;;;;;;;;;;;;;;;;3571407;40;20266;-69
2021/07/22 09:11:42;;;;;;;;;;;;;;;;;;3573142;40;19936;-70
2021/07/22 09:14:09;;;;;;;;;;;;;;;;;;3569941;40;20150;-70
2021/07/22 09:16:35;;;;;;;;;;;;;;;;;;3567243;40;19929;-70
2021/07/22 09:19:01;;;;;;;;;;;;;;;;;;3562402;40;19945;-69
2021/07/22 09:21:27;;;;;;;;;;;;;;;;;;3569083;40;19929;-70
2021/07/22 09:23:53;;;;;;;;;;;;;;;;;;3570000;40;19941;-69
2021/07/22 09:26:19;;;;;;;;;;;;;;;;;;3570525;40;19929;-69
2021/07/22 09:28:45;;;;;;;;;;;;;;;;;;3567883;40;20268;-70
2021/07/22 09:31:10;;;;;;;;;;;;;;;;;;3569927;40;19929;-69
2021/07/22 09:33:36;;;;;;;;;;;;;;;;;;3570158;40;19933;-69
2021/07/22 09:36:02;;;;;;;;;;;;;;;;;;3571857;40;19929;-71
2021/07/22 09:38:30;;;;;;;;;;;23.30;99.90;;;;;;3577839;40;19945;-70
2021/07/22 09:40:56;;;;;;;;;;;;;;;;;;3570403;40;19969;-69
2021/07/22 09:43:34;;;;;;;;;;;29.10;94.50;;;;;;3576837;40;19933;-69
2021/07/22 09:46:00;;;;;;;;;;;29.30;93.40;;;;;;3571885;40;19937;-70
2021/07/22 09:48:26;;;;;;;;;;;;;;;;;;3572267;40;20190;-70
2021/07/22 09:50:52;;;;;;;;;;;;;;;;;;3569314;40;19933;-70
2021/07/22 09:53:20;;;;;;;;;;;;;;;;;;3574493;40;19933;-69
2021/07/22 09:55:46;;;;;;;;;;;;;;;;;;3575738;40;19965;-69
2021/07/22 09:58:12;;;;;;;;;;;;;;;;;;3570556;40;19940;-69
2021/07/22 10:00:38;;;;;;;;;;;;;;;;;;3574173;40;20333;-69
2021/07/22 10:03:04;;;;;;;;;;;;;;;;;;3573828;40;20198;-69
2021/07/22 10:05:30;;;;;;;;;;;;;;;;;;3573227;40;20293;-70
2021/07/22 10:07:56;;;;;;;;;;;;;;;;;;3558964;40;20338;-69
2021/07/22 10:10:22;;;;;;;;;;;;;;;;;;3559752;40;19929;-69
2021/07/22 10:12:47;;;;;;;;;;;;;;;;;;3555013;40;19938;-69
2021/07/22 10:15:13;;;;;;;;;;;;;;;;;;3558837;40;20283;-69
2021/07/22 10:17:40;;;;;;;;;;;;;;;;;;3558866;40;19930;-69
2021/07/22 10:20:06;;;;;;;;;;;;;;;;;;3558729;40;19936;-69
2021/07/22 10:22:32;;;;;;;;;;;;;;;;;;3558820;40;19997;-69
2021/07/22 10:24:58;;;;;;;;;;;;;;;;;;3558222;40;20220;-69
2021/07/22 10:27:24;;;;;;;;;;;;;;;;;;3555651;40;19931;-69
2021/07/22 10:29:50;;;;;;;;;;;;;;;;;;3557657;40;19966;-69
2021/07/22 10:32:16;;;;;;;;;;;;;;;;;;3560869;40;19935;-69
2021/07/22 10:34:42;;;;;;;;;;;;;;;;;;3562821;40;19930;-69
2021/07/22 10:37:07;;;;;;;;;;;;;;;;;;3558422;40;19936;-69
2021/07/22 10:39:33;;;;;;;;;;;;;;;;;;3568601;40;19944;-69
2021/07/22 10:41:59;;;;;;;;;;;;;;;;;;3580039;40;20030;-70
2021/07/22 10:44:25;;;;;;;;;;;;;;;;;;3581857;40;19941;-69
2021/07/22 10:46:52;;;;;;;;;;;;;;;;;;3580449;40;19936;-69
2021/07/22 10:49:18;;;;;;;;;;;;;;;;;;3580395;40;20037;-69
2021/07/22 10:51:45;;;;;;;;;;;;;;;;;;3576332;40;19941;-69
2021/07/22 10:54:11;;;;;;;;;;;;;;;;;;3581978;40;20182;-70
2021/07/22 10:56:37;;;;;;;;;;;;;;;;;;3585442;40;19943;-70
2021/07/22 10:59:03;;;;;;;;;;;;;;;;;;3578909;40;19942;-69
2021/07/22 11:01:29;;;;;;;;;;;;;;;;;;3582702;40;20201;-69
2021/07/22 11:03:55;;;;;;;;;;;;;;;;;;3580208;40;19924;-69
2021/07/22 11:06:21;;;;;;;;;;;;;;;;;;3571289;40;20167;-69
2021/07/22 11:08:46;;;;;;;;;;;;;;;;;;3580996;40;19935;-70
2021/07/22 11:11:16;;;;;;;;;;;;;;;;;;3580876;40;19933;-69
2021/07/22 11:13:44;;;;;;;;;;;;;;;;;;3583553;40;19929;-69
2021/07/22 11:16:10;;;;;;;;;;;;;;;;;;3580581;40;19941;-69
2021/07/22 11:18:36;;;;;;;;;;;;;;;;;;3582353;40;19935;-69
2021/07/22 11:21:02;;;;;;;;;;;;;;;;;;3581798;40;19928;-69
2021/07/22 11:23:28;;;;;;;;;;;;;;;;;;3581287;40;20189;-70
2021/07/22 11:25:53;;;;;;;;;;;;;;;;;;3582660;40;19932;-69
2021/07/22 11:28:19;;;;;;;;;;;;;;;;;;3584276;40;20014;-69
2021/07/22 11:30:45;;;;;;;;;;;;;;;;;;3580521;40;20360;-68
2021/07/22 11:33:11;;;;;;;;;;;;;;;;;;3580908;40;20010;-69
2021/07/22 11:35:37;;;;;;;;;;;;;;;;;;3580194;40;19928;-69
2021/07/22 11:38:03;;;;;;;;;;;;;;;;;;3579480;40;19941;-69
2021/07/22 11:40:29;;;;;;;;;;;;;;;;;;3581176;40;19932;-69
2021/07/22 11:42:55;;;;;;;;;;;;;;;;;;3587444;40;19935;-69
2021/07/22 11:45:21;;;;;;;;;;;;;;;;;;3579892;40;20229;-69
2021/07/22 11:47:49;;;;;;;;;;;;;;;;;;3578922;40;19929;-69
2021/07/22 11:50:15;;;;;;;;;;;;;;;;;;3581966;40;19928;-69
2021/07/22 11:52:41;;;;;;;;;;;;;;;;;;3581168;40;19965;-69
2021/07/22 11:55:08;;;;;;;;;;;;;;;;;;3584832;40;19935;-69
2021/07/22 11:57:34;;;;;;;;;;;;;;;;;;3579927;40;19965;-70
2021/07/22 12:00:00;;;;;;;;;;;;;;;;;;3583201;40;19929;-69
2021/07/22 12:02:26;;;;;;;;;;;;;;;;;;3579688;40;19929;-69
2021/07/22 12:04:52;;;;;;;;;;;;;;;;;;3581549;40;19932;-69
2021/07/22 12:07:17;;;;;;;;;;;;;;;;;;3579887;40;19937;-69
2021/07/22 12:09:44;;;;;;;;;;;;;;;;;;3578581;40;19936;-69
2021/07/22 12:12:10;;;;;;;;;;;;;;;;;;3580334;40;19941;-69
2021/07/22 12:14:36;;;;;;;;;;;;;;;;;;3579573;40;19961;-69
2021/07/22 12:17:02;;;;;;;;;;;;;;;;;;3580236;40;19972;-69
2021/07/22 12:19:28;;;;;;;;;;;;;;;;;;3580075;40;19929;-69
2021/07/22 12:21:54;;;;;;;;;;;;;;;;;;3584434;40;19937;-69
2021/07/22 12:24:20;;;;;;;;;;;;;;;;;;3584963;40;19932;-69
2021/07/22 12:26:46;;;;;;;;;;;;;;;;;;3579928;40;19967;-69
2021/07/22 12:29:11;;;;;;;;;;;;;;;;;;3583723;40;19928;-69
2021/07/22 12:31:38;;;;;;;;;;;;;;;;;;3577557;40;20198;-69
2021/07/22 12:34:04;;;;;;;;;;;;;;;;;;3577872;40;19985;-69
2021/07/22 12:36:33;;;;;;;;;;;;;;;;;;3580078;40;20194;-69
2021/07/22 12:38:59;;;;;;;;;;;;;;;;;;3580870;40;19936;-69
2021/07/22 12:41:25;;;;;;;;;;;;;;;;;;3576289;40;20175;-69
2021/07/22 12:43:51;;;;;;;;;;;;;;;;;;3579727;40;19935;-69
2021/07/22 12:46:17;;;;;;;;;;;;;;;;;;3575550;40;19936;-69
2021/07/22 12:48:43;;;;;;;;;;;;;;;;;;3579402;40;20022;-70
2021/07/22 12:51:09;;;;;;;;;;;;;;;;;;3577279;40;19935;-69
2021/07/22 12:53:35;;;;;;;;;;;;;;;;;;3581791;40;19928;-70
2021/07/22 12:56:01;;;;;;;;;;;;;;;;;;3579061;40;20022;-69
2021/07/22 12:58:27;;;;;;;;;;;;;;;;;;3578053;40;19941;-70
2021/07/22 13:00:53;;;;;;;;;;;;;;;;;;3575400;40;20282;-69
2021/07/22 13:03:19;;;;;;;;;;;;;;;;;;3579421;40;19936;-69
2021/07/22 13:05:45;;;;;;;;;;;;;;;;;;3579335;40;19939;-68
2021/07/22 13:08:10;;;;;;;;;;;;;;;;;;3579443;40;19936;-69
2021/07/22 13:10:37;;;;;;;;;;;;;;;;;;3569329;40;20193;-69
2021/07/22 13:13:03;;;;;;;;;;;;;;;;;;3578281;40;19936;-70
2021/07/22 13:15:29;;;;;;;;;;;;;;;;;;3582371;40;19929;-69
2021/07/22 13:17:54;;;;;;;;;;;;;;;;;;3584066;40;20009;-69
2021/07/22 13:20:20;;;;;;;;;;;;;;;;;;3581322;40;20296;-69
2021/07/22 13:22:46;;;;;;;;;;;;;;;;;;3570183;40;19929;-69
2021/07/22 13:25:12;;;;;;;;;;;;;;;;;;3576381;40;19937;-69
2021/07/22 13:27:38;;;;;;;;;;;;;;;;;;3580638;40;20310;-69
2021/07/22 13:30:04;;;;;;;;;;;;;;;;;;3581021;40;19936;-69
2021/07/22 13:32:30;;;;;;;;;;;;;;;;;;3581808;40;19936;-69
2021/07/22 13:34:56;;;;;;;;;;;;;;;;;;3585637;40;20282;-69
2021/07/22 13:37:22;;;;;;;;;;;;;;;;;;3582196;40;19955;-70
2021/07/22 13:39:48;;;;;;;;;;;;;;;;;;3571133;40;19929;-69
2021/07/22 13:42:14;;;;;;;;;;;;;;;;;;3580633;40;19929;-69
2021/07/22 13:44:41;;;;;;;;;;;29.40;94.90;;;;;;3571516;40;20199;-69
2021/07/22 13:47:06;;;;;;;;;;;33.60;79.00;;;;;;3578386;40;19937;-69
2021/07/22 13:49:32;;;;;;;;;;;33.60;80.10;;;;;;3580814;40;19940;-69
2021/07/22 13:51:58;;;;;;;;;;;33.60;79.80;;;;;;3571202;40;19933;-69
2021/07/22 13:54:24;;;;;;;;;;;33.20;81.00;;;;;;3581119;40;19933;-69
2021/07/22 13:56:50;;;;;;;;;;;33.40;79.90;;;;;;3582739;40;19939;-69
2021/07/22 13:59:15;;;;;;;;;;;33.40;78.80;;;;;;3583733;40;19933;-69
2021/07/22 14:01:42;;;;;;;;;;;33.40;80.90;;;;;;3580511;40;20014;-69
2021/07/22 14:04:08;;;;;;;;;;;32.90;80.40;;;;;;3583101;40;20277;-69
2021/07/22 14:06:34;;;;;;;;;;;;;;;;;;3581694;40;19969;-69
2021/07/22 14:09:00;;;;;;;;;;;;;;;;;;3578626;40;19929;-69
2021/07/22 14:11:26;;;;;;;;;;;;;;;;;;3582851;40;19928;-69
2021/07/22 14:13:51;;;;;;;;;;;32.20;83.40;;;;;;3581760;40;19929;-69
2021/07/22 14:16:17;;;;;;;;;;;32.90;80.70;;;;;;3579678;40;19940;-69
2021/07/22 14:18:44;;;;;;;;;;;32.80;81.00;;;;;;3581464;40;19933;-71
2021/07/22 14:21:10;;;;;;;;;;;32.60;81.60;;;;;;3580481;40;19941;-70
2021/07/22 14:23:36;;;;;;;;;;;32.50;80.40;;;;;;3577466;40;19933;-70
2021/07/22 14:26:01;;;;;;;;;;;32.30;81.30;;;;;;3576593;40;20257;-71
2021/07/22 14:28:27;;;;;;;;;;;32.40;81.80;;;;;;3570537;40;19965;-71
2021/07/22 14:30:53;;;;;;;;;;;32.70;81.60;;;;;;3578669;40;20281;-70
2021/07/22 14:33:19;;;;;;;;;;;;;;;;;;3583563;40;19933;-70
2021/07/22 14:35:46;;;;;;;;;;;33.10;81.80;;;;;;3588159;40;19939;-70
2021/07/22 14:38:11;;;;;;;;;;;33.60;81.20;;;;;;3585860;40;20018;-70
2021/07/22 14:40:37;;;;;;;;;;;33.30;80.00;;;;;;3577839;40;19945;-70
2021/07/22 14:43:03;;;;;;;;;;;33.30;78.40;;;;;;3579753;40;19939;-70
2021/07/22 14:45:29;;;;;;;;;;;33.50;78.70;;;;;;3579013;40;19973;-70
2021/07/22 14:47:54;;;;;;;;;;;33.90;77.10;;;;;;3571827;40;20014;-68
2021/07/22 14:50:20;;;;;;;;;;;33.90;77.60;;;;;;3579786;40;20285;-69
2021/07/22 14:52:47;;;;;;;;;;;34.00;76.80;;;;;;3577672;40;20011;-68
2021/07/22 14:55:13;;;;;;;;;;;34.00;79.20;;;;;;3572910;40;19948;-69
2021/07/22 14:57:38;;;;;;;;;;;34.20;78.20;;;;;;3578934;40;19933;-68
2021/07/22 15:00:05;;;;;;;;;;;34.20;76.90;;;;;;3575672;40;20018;-68
2021/07/22 15:02:31;;;;;;;;;;;34.20;77.90;;;;;;3580601;40;20288;-68
2021/07/22 15:04:57;;;;;;;;;;;;;;;;;;3577303;40;19930;-68
2021/07/22 15:07:23;;;;;;;;;;;34.30;77.70;;;;;;3570029;40;19929;-67
2021/07/22 15:09:50;;;;;;;;;;;34.30;76.30;;;;;;3569562;40;20011;-68
2021/07/22 15:12:15;;;;;;;;;;;34.20;77.50;;;;;;3580706;40;20242;-68
2021/07/22 15:14:41;;;;;;;;;;;34.00;76.00;;;;;;3580823;40;19933;-68
2021/07/22 15:17:07;;;;;;;;;;;33.90;75.10;;;;;;3579025;40;19940;-69
2021/07/22 15:19:33;;;;;;;6.00;4.05;;;33.90;75.30;;;;;;3576089;40;19940;-67
2021/07/22 15:21:59;;;;;;;6.35;4.70;;;33.90;76.20;;;;;;3579559;40;20408;-68
2021/07/22 15:24:25;;;;;;;5.72;4.30;;;34.00;76.40;;;;;;3563468;40;20373;-68
2021/07/22 15:26:53;;;;;;;7.93;4.70;;;34.00;75.70;;;;;;3576744;40;20416;-68
2021/07/22 15:29:19;;;;;;;7.60;4.60;;;34.10;75.50;;;;;;3583092;40;20729;-68
2021/07/22 15:31:45;;;;;;;6.40;4.20;;;34.30;76.10;;;;;;3576147;40;20376;-70
2021/07/22 15:34:11;;;;;;;6.82;4.70;;;34.40;75.20;;;;;;3580283;40;20736;-70
2021/07/22 15:36:38;;;;;;;5.97;4.53;;;34.00;76.20;;;;;;3580138;40;20375;-69
2021/07/22 15:39:05;;;;;;;6.97;4.85;;;33.70;76.20;;;;;;3576801;40;20491;-69
2021/07/22 15:41:31;;;;;;;9.48;4.93;;;33.70;76.80;;;;;;3566764;40;20793;-68